createdAt,value
2022-12-28T00:01:50.008Z,0.67
2022-12-28T00:04:17.341Z,0.50
2022-12-28T00:06:45.566Z,0.70
2022-12-28T00:09:13.264Z,0.50
2022-12-28T00:11:40.745Z,0.63
2022-12-28T00:14:08.547Z,0.73
2022-12-28T00:16:37.833Z,0.60
2022-12-28T00:19:07.851Z,0.50
2022-12-28T00:21:35.211Z,0.53
2022-12-28T00:24:02.639Z,0.67
2022-12-28T00:26:33.151Z,0.70
2022-12-28T00:29:05.288Z,0.70
2022-12-28T00:31:34.292Z,0.60
2022-12-28T00:34:02.571Z,0.50
2022-12-28T00:37:10.161Z,0.87
2022-12-28T00:39:17.645Z,0.57
2022-12-28T00:41:44.798Z,0.60
2022-12-28T00:44:11.940Z,0.57
2022-12-28T00:46:39.176Z,0.60
2022-12-28T00:49:06.273Z,0.70
2022-12-28T00:51:33.428Z,0.73
2022-12-28T00:54:00.606Z,0.40
2022-12-28T00:56:27.750Z,0.60
2022-12-28T00:58:59.717Z,0.50
2022-12-28T01:01:28.330Z,0.80
2022-12-28T01:03:57.180Z,0.40
2022-12-28T01:06:24.433Z,0.43
2022-12-28T01:08:52.253Z,0.60
2022-12-28T01:11:22.181Z,0.37
2022-12-28T01:13:50.760Z,0.60
2022-12-28T01:16:25.034Z,0.50
2022-12-28T01:18:54.792Z,0.73
2022-12-28T01:21:24.464Z,0.70
2022-12-28T01:23:55.334Z,0.43
2022-12-28T01:26:23.073Z,0.40
2022-12-28T01:28:50.465Z,0.50
2022-12-28T01:31:20.509Z,0.50
2022-12-28T01:33:48.275Z,0.70
2022-12-28T01:36:24.223Z,0.30
2022-12-28T01:38:57.506Z,0.37
2022-12-28T01:41:26.611Z,0.60
2022-12-28T01:43:53.940Z,0.43
2022-12-28T01:46:23.153Z,0.50
2022-12-28T01:49:03.355Z,0.60
2022-12-28T01:51:35.268Z,0.57
2022-12-28T01:54:04.635Z,0.50
2022-12-28T01:56:32.110Z,0.60
2022-12-28T01:58:59.485Z,0.40
2022-12-28T02:01:27.151Z,0.50
2022-12-28T02:03:54.422Z,0.57
2022-12-28T02:06:21.669Z,0.30
2022-12-28T02:08:57.169Z,0.60
2022-12-28T02:11:25.309Z,0.60
2022-12-28T02:13:54.817Z,0.50
2022-12-28T02:16:22.043Z,0.70
2022-12-28T02:18:50.450Z,0.97
2022-12-28T02:21:36.634Z,0.37
2022-12-28T02:24:37.479Z,0.40
2022-12-28T02:27:14.112Z,0.60
2022-12-28T02:30:09.265Z,0.60
2022-12-28T02:32:55.389Z,0.60
2022-12-28T02:35:42.916Z,0.40
2022-12-28T02:38:28.006Z,0.57
2022-12-28T02:41:01.528Z,0.70
2022-12-28T02:43:28.824Z,0.50
2022-12-28T02:46:14.849Z,0.53
2022-12-28T02:49:02.500Z,0.40
2022-12-28T02:51:57.186Z,0.40
2022-12-28T02:54:59.927Z,0.47
2022-12-28T02:57:40.393Z,0.60
2022-12-28T03:00:09.441Z,0.53
2022-12-28T03:03:00.479Z,0.80
2022-12-28T03:06:26.995Z,0.60
2022-12-28T03:09:13.062Z,0.60
2022-12-28T03:11:57.037Z,0.50
2022-12-28T03:14:30.646Z,0.60
2022-12-28T03:17:19.118Z,0.60
2022-12-28T03:20:11.089Z,0.40
2022-12-28T03:22:58.931Z,0.60
2022-12-28T03:25:48.498Z,0.53
2022-12-28T03:28:38.336Z,0.87
2022-12-28T03:31:11.703Z,0.53
2022-12-28T03:33:50.728Z,0.80
2022-12-28T03:36:56.478Z,0.63
2022-12-28T03:39:44.789Z,0.47
2022-12-28T03:42:45.043Z,0.47
2022-12-28T03:45:45.054Z,0.40
2022-12-28T03:48:15.628Z,0.50
2022-12-28T03:50:45.602Z,0.57
2022-12-28T03:53:13.025Z,0.50
2022-12-28T03:55:40.680Z,0.40
2022-12-28T03:58:07.872Z,0.50
2022-12-28T04:00:34.980Z,0.70
2022-12-28T04:03:02.310Z,0.50
2022-12-28T04:05:29.559Z,0.60
2022-12-28T04:07:56.708Z,0.60
2022-12-28T04:10:23.854Z,0.80
2022-12-28T04:12:55.732Z,0.60
2022-12-28T04:15:23.284Z,0.60
2022-12-28T04:17:50.408Z,0.63
2022-12-28T04:20:17.742Z,0.70
2022-12-28T04:22:45.021Z,0.63
2022-12-28T04:25:12.285Z,0.73
2022-12-28T04:27:39.426Z,0.70
2022-12-28T04:30:07.311Z,0.50
2022-12-28T04:32:34.628Z,0.70
2022-12-28T04:35:02.333Z,0.57
2022-12-28T04:37:29.641Z,0.47
2022-12-28T04:39:57.562Z,0.53
2022-12-28T04:42:28.033Z,0.60
2022-12-28T04:44:55.212Z,0.47
2022-12-28T04:47:22.297Z,0.50
2022-12-28T04:49:50.581Z,0.67
2022-12-28T04:52:17.693Z,0.50
2022-12-28T04:54:44.985Z,0.50
2022-12-28T04:57:12.126Z,0.60
2022-12-28T04:59:40.568Z,0.40
2022-12-28T05:02:08.433Z,0.50
2022-12-28T05:04:35.837Z,0.50
2022-12-28T05:07:03.003Z,0.77
2022-12-28T05:09:30.141Z,1.00
2022-12-28T05:11:57.297Z,0.73
2022-12-28T05:14:24.444Z,0.50
2022-12-28T05:16:52.287Z,0.53
2022-12-28T05:19:19.447Z,0.90
2022-12-28T05:21:46.558Z,0.73
2022-12-28T05:24:13.693Z,0.50
2022-12-28T05:26:40.803Z,0.80
2022-12-28T05:29:08.049Z,0.97
2022-12-28T05:31:35.298Z,1.10
2022-12-28T05:34:02.562Z,0.93
2022-12-28T05:36:29.807Z,1.10
2022-12-28T05:38:57.393Z,0.90
2022-12-28T05:41:27.064Z,0.90
2022-12-28T05:43:54.937Z,0.80
2022-12-28T05:46:28.063Z,0.90
2022-12-28T05:48:55.863Z,0.70
2022-12-28T05:51:25.618Z,0.80
2022-12-28T05:53:52.813Z,0.70
2022-12-28T05:56:25.676Z,0.87
2022-12-28T05:59:01.039Z,0.80
2022-12-28T06:01:31.274Z,0.60
2022-12-28T06:04:04.601Z,0.50
2022-12-28T06:06:33.074Z,0.50
2022-12-28T06:09:00.687Z,0.60
2022-12-28T06:11:29.280Z,0.80
2022-12-28T06:13:58.355Z,1.10
2022-12-28T06:16:30.671Z,1.30
2022-12-28T06:18:58.494Z,1.30
2022-12-28T06:21:25.639Z,1.27
2022-12-28T06:23:54.901Z,1.10
2022-12-28T06:26:22.268Z,1.20
2022-12-28T06:28:50.215Z,1.00
2022-12-28T06:31:23.379Z,0.70
2022-12-28T06:33:54.158Z,1.00
2022-12-28T06:36:29.851Z,0.67
2022-12-28T06:38:58.943Z,1.03
2022-12-28T06:41:27.794Z,0.87
2022-12-28T06:43:55.612Z,0.90
2022-12-28T06:46:24.364Z,0.60
2022-12-28T06:48:51.776Z,0.70
2022-12-28T06:51:28.155Z,0.90
2022-12-28T06:53:56.428Z,0.80
2022-12-28T06:56:26.337Z,0.50
2022-12-28T06:59:00.561Z,0.70
2022-12-28T07:01:35.486Z,0.60
2022-12-28T07:04:04.592Z,0.73
2022-12-28T07:06:36.801Z,0.70
2022-12-28T07:09:07.443Z,0.90
2022-12-28T07:11:34.942Z,0.60
2022-12-28T07:14:02.573Z,0.53
2022-12-28T07:18:58.697Z,0.70
2022-12-28T07:21:28.667Z,0.77
2022-12-28T07:23:56.800Z,0.60
2022-12-28T07:26:26.916Z,0.50
2022-12-28T07:28:55.949Z,0.80
2022-12-28T07:31:26.120Z,0.90
2022-12-28T07:33:55.689Z,0.90
2022-12-28T07:36:23.850Z,1.07
2022-12-28T07:38:51.398Z,1.10
2022-12-28T07:41:21.111Z,1.00
2022-12-28T07:43:48.920Z,0.93
2022-12-28T07:46:22.014Z,0.80
2022-12-28T07:48:49.906Z,1.10
2022-12-28T07:51:18.521Z,0.90
2022-12-28T07:53:47.173Z,1.33
2022-12-28T07:56:15.760Z,1.10
2022-12-28T08:01:11.919Z,0.80
2022-12-28T08:03:40.963Z,0.90
2022-12-28T08:06:10.751Z,1.10
2022-12-28T08:08:43.399Z,0.90
2022-12-28T08:11:16.151Z,0.90
2022-12-28T08:13:46.171Z,1.10
2022-12-28T08:16:15.116Z,1.17
2022-12-28T08:18:42.901Z,1.23
2022-12-28T08:21:18.574Z,1.17
2022-12-28T08:23:46.064Z,1.17
2022-12-28T08:26:25.383Z,1.20
2022-12-28T08:28:55.997Z,1.20
2022-12-28T08:31:26.305Z,0.90
2022-12-28T08:33:55.034Z,0.77
2022-12-28T08:36:22.555Z,1.07
2022-12-28T08:38:50.599Z,1.30
2022-12-28T08:41:21.049Z,0.90
2022-12-28T08:43:48.975Z,0.90
2022-12-28T08:46:24.450Z,1.00
2022-12-28T08:48:53.946Z,1.17
2022-12-28T08:51:23.887Z,1.13
2022-12-28T08:53:51.081Z,1.07
2022-12-28T08:56:27.818Z,0.97
2022-12-28T08:58:55.782Z,0.90
2022-12-28T09:01:32.824Z,1.13
2022-12-28T09:04:03.628Z,1.17
2022-12-28T09:06:36.923Z,1.00
2022-12-28T09:09:08.733Z,1.17
2022-12-28T09:11:37.298Z,1.17
2022-12-28T09:14:06.453Z,0.70
2022-12-28T09:16:33.888Z,0.93
2022-12-28T09:19:02.710Z,0.80
2022-12-28T09:21:32.644Z,1.20
2022-12-28T09:23:59.946Z,1.10
2022-12-28T09:26:31.222Z,0.80
2022-12-28T09:29:03.113Z,0.97
2022-12-28T09:31:31.915Z,1.03
2022-12-28T09:36:47.890Z,1.00
2022-12-28T09:39:20.893Z,0.97
2022-12-28T09:42:17.981Z,1.07
2022-12-28T09:44:57.510Z,0.73
2022-12-28T09:47:24.607Z,0.73
2022-12-28T09:50:00.942Z,0.90
2022-12-28T09:52:47.857Z,0.90
2022-12-28T09:55:18.434Z,0.87
2022-12-28T09:57:49.754Z,0.77
2022-12-28T10:00:20.442Z,0.70
2022-12-28T10:03:03.983Z,0.80
2022-12-28T10:05:31.445Z,1.03
2022-12-28T10:07:59.883Z,0.87
2022-12-28T10:10:28.471Z,1.00
2022-12-28T10:12:59.392Z,0.90
2022-12-28T10:15:28.692Z,0.97
2022-12-28T10:17:55.881Z,0.80
2022-12-28T10:20:23.521Z,0.73
2022-12-28T10:22:57.114Z,1.10
2022-12-28T10:25:26.866Z,0.60
2022-12-28T10:27:55.109Z,1.60
2022-12-28T10:30:29.890Z,0.70
2022-12-28T10:33:03.098Z,0.90
2022-12-28T10:35:37.520Z,1.27
2022-12-28T10:38:19.787Z,1.23
2022-12-28T10:40:59.033Z,1.03
2022-12-28T10:43:33.149Z,1.10
2022-12-28T10:46:02.129Z,1.07
2022-12-28T10:48:36.904Z,1.20
2022-12-28T10:51:25.037Z,1.50
2022-12-28T10:53:58.018Z,0.93
2022-12-28T10:56:32.607Z,1.00
2022-12-28T10:59:12.678Z,1.10
2022-12-28T11:01:42.771Z,1.10
2022-12-28T11:04:21.588Z,0.90
2022-12-28T11:06:53.367Z,1.00
2022-12-28T11:09:26.838Z,0.80
2022-12-28T11:11:56.532Z,1.10
2022-12-28T11:14:36.423Z,0.90
2022-12-28T11:17:34.508Z,1.10
2022-12-28T11:20:14.211Z,1.30
2022-12-28T11:22:41.305Z,0.80
2022-12-28T11:25:08.695Z,0.67
2022-12-28T11:27:36.575Z,0.93
2022-12-28T11:30:04.558Z,0.90
2022-12-28T11:32:37.354Z,1.00
2022-12-28T11:35:05.396Z,1.13
2022-12-28T11:37:32.789Z,0.90
2022-12-28T11:40:00.051Z,0.67
2022-12-28T11:42:41.275Z,0.90
2022-12-28T11:45:17.275Z,0.60
2022-12-28T11:47:45.972Z,0.83
2022-12-28T11:50:34.816Z,1.17
2022-12-28T11:53:06.623Z,1.20
2022-12-28T11:56:05.303Z,3.63
2022-12-28T11:58:41.222Z,3.50
2022-12-28T12:01:30.106Z,2.83
2022-12-28T12:03:57.392Z,2.37
2022-12-28T12:06:45.986Z,2.40
2022-12-28T12:09:38.468Z,2.10
2022-12-28T12:12:18.165Z,1.77
2022-12-28T12:15:02.012Z,1.50
2022-12-28T12:17:52.267Z,1.20
2022-12-28T12:20:41.016Z,1.47
2022-12-28T12:23:17.794Z,1.47
2022-12-28T12:25:48.903Z,1.57
2022-12-28T12:28:33.020Z,1.60
2022-12-28T12:31:03.053Z,1.20
2022-12-28T12:33:36.904Z,1.20
2022-12-28T12:36:28.657Z,1.17
2022-12-28T12:39:17.852Z,1.50
2022-12-28T12:42:03.708Z,1.10
2022-12-28T12:44:49.219Z,1.17
2022-12-28T12:47:32.759Z,1.60
2022-12-28T12:50:45.805Z,1.00
2022-12-28T12:53:18.708Z,1.23
2022-12-28T12:56:07.721Z,1.07
2022-12-28T12:58:40.707Z,1.37
2022-12-28T13:01:52.912Z,1.30
2022-12-28T13:04:26.441Z,1.20
2022-12-28T13:06:59.162Z,1.43
2022-12-28T13:09:30.202Z,1.10
2022-12-28T13:11:58.865Z,1.27
2022-12-28T13:14:26.261Z,1.03
2022-12-28T13:16:56.121Z,1.27
2022-12-28T13:19:28.409Z,1.37
2022-12-28T13:21:58.054Z,1.20
2022-12-28T13:24:28.173Z,1.07
2022-12-28T13:26:57.873Z,1.47
2022-12-28T13:29:33.124Z,1.10
2022-12-28T13:32:00.405Z,1.30
2022-12-28T13:34:31.281Z,1.40
2022-12-28T13:37:00.726Z,1.20
2022-12-28T13:39:30.285Z,1.23
2022-12-28T13:42:02.466Z,1.33
2022-12-28T13:44:40.047Z,1.23
2022-12-28T13:47:10.570Z,1.77
2022-12-28T13:50:04.451Z,1.30
2022-12-28T13:52:41.126Z,1.23
2022-12-28T13:55:22.552Z,1.33
2022-12-28T13:57:59.747Z,1.27
2022-12-28T14:00:28.843Z,1.60
2022-12-28T14:02:57.904Z,1.43
2022-12-28T14:05:27.985Z,1.57
2022-12-28T14:07:58.096Z,1.50
2022-12-28T14:10:26.566Z,1.80
2022-12-28T14:12:55.440Z,1.60
2022-12-28T14:15:23.237Z,1.80
2022-12-28T14:17:51.814Z,1.57
2022-12-28T14:20:19.555Z,1.47
2022-12-28T14:22:47.041Z,1.43
2022-12-28T14:25:17.299Z,1.70
2022-12-28T14:27:57.050Z,1.50
2022-12-28T14:30:42.276Z,1.50
2022-12-28T14:33:24.583Z,1.57
2022-12-28T14:35:58.828Z,1.43
2022-12-28T14:38:32.505Z,1.60
2022-12-28T14:41:02.715Z,1.90
2022-12-28T14:43:35.966Z,1.90
2022-12-28T14:46:18.765Z,1.47
2022-12-28T14:48:47.680Z,1.60
2022-12-28T14:51:15.043Z,1.80
2022-12-28T14:53:44.962Z,1.60
2022-12-28T14:56:18.802Z,1.70
2022-12-28T14:58:53.972Z,1.50
2022-12-28T15:01:22.512Z,1.80
2022-12-28T15:04:01.052Z,1.90
2022-12-28T15:06:30.759Z,1.90
2022-12-28T15:08:59.100Z,2.00
2022-12-28T15:11:28.242Z,1.93
2022-12-28T15:13:57.119Z,1.63
2022-12-28T15:16:24.367Z,2.00
2022-12-28T15:18:53.077Z,1.60
2022-12-28T15:21:23.469Z,1.40
2022-12-28T15:23:51.814Z,1.93
2022-12-28T15:26:19.588Z,1.80
2022-12-28T15:28:46.940Z,1.60
2022-12-28T15:31:18.379Z,1.80
2022-12-28T15:33:46.938Z,2.00
2022-12-28T15:36:19.408Z,2.07
2022-12-28T15:38:47.854Z,2.20
2022-12-28T15:41:34.875Z,1.80
2022-12-28T15:44:02.774Z,2.10
2022-12-28T15:46:30.299Z,2.30
2022-12-28T15:48:57.602Z,2.93
2022-12-28T15:51:24.731Z,3.67
2022-12-28T15:53:51.819Z,3.93
2022-12-28T15:56:30.565Z,4.03
2022-12-28T15:58:59.394Z,3.73
2022-12-28T16:01:29.358Z,4.00
2022-12-28T16:03:58.980Z,4.20
2022-12-28T16:06:27.741Z,4.00
2022-12-28T16:09:00.234Z,4.00
2022-12-28T16:11:34.293Z,3.90
2022-12-28T16:14:07.290Z,3.20
2022-12-28T16:16:37.108Z,3.10
2022-12-28T16:19:05.187Z,3.17
2022-12-28T16:21:32.663Z,3.80
2022-12-28T16:24:00.869Z,3.70
2022-12-28T16:26:28.923Z,3.43
2022-12-28T16:28:57.901Z,3.00
2022-12-28T16:31:27.574Z,3.03
2022-12-28T16:34:00.420Z,3.03
2022-12-28T16:36:28.965Z,2.60
2022-12-28T16:38:56.923Z,3.20
2022-12-28T16:41:24.761Z,3.13
2022-12-28T16:43:52.631Z,2.90
2022-12-28T16:46:19.941Z,2.87
2022-12-28T16:48:47.072Z,3.20
2022-12-28T16:51:14.210Z,3.10
2022-12-28T16:53:41.727Z,2.90
2022-12-28T16:56:10.536Z,3.10
2022-12-28T16:58:38.713Z,2.70
2022-12-28T17:01:11.888Z,3.00
2022-12-28T17:03:39.593Z,3.10
2022-12-28T17:06:07.824Z,2.70
2022-12-28T17:08:36.015Z,2.67
2022-12-28T17:11:07.897Z,2.60
2022-12-28T17:13:35.754Z,3.03
2022-12-28T17:16:06.180Z,2.90
2022-12-28T17:18:38.264Z,2.63
2022-12-28T17:21:07.673Z,2.60
2022-12-28T17:23:35.095Z,2.90
2022-12-28T17:26:02.523Z,3.17
2022-12-28T17:28:29.789Z,2.80
2022-12-28T17:31:08.766Z,3.00
2022-12-28T17:33:39.843Z,3.00
2022-12-28T17:36:09.800Z,3.10
2022-12-28T17:38:38.106Z,3.10
2022-12-28T17:41:14.753Z,2.70
2022-12-28T17:43:50.972Z,3.00
2022-12-28T17:46:19.063Z,2.80
2022-12-28T17:48:47.262Z,2.57
2022-12-28T17:51:16.570Z,2.70
2022-12-28T17:53:43.999Z,3.10
2022-12-28T17:56:14.205Z,3.30
2022-12-28T17:58:43.310Z,3.10
2022-12-28T18:01:17.626Z,3.17
2022-12-28T18:03:48.397Z,3.90
2022-12-28T18:06:16.034Z,3.20
2022-12-28T18:08:43.617Z,3.27
2022-12-28T18:11:12.022Z,3.10
2022-12-28T18:13:41.218Z,3.10
2022-12-28T18:16:12.284Z,2.97
2022-12-28T18:18:41.194Z,3.30
2022-12-28T18:21:21.346Z,3.00
2022-12-28T18:23:53.416Z,2.90
2022-12-28T18:26:29.239Z,2.50
2022-12-28T18:28:59.341Z,2.40
2022-12-28T18:31:27.813Z,2.10
2022-12-28T18:33:56.513Z,2.60
2022-12-28T18:36:30.747Z,2.27
2022-12-28T18:38:59.501Z,2.27
2022-12-28T18:41:34.254Z,2.37
2022-12-28T18:44:03.134Z,2.33
2022-12-28T18:46:31.237Z,2.40
2022-12-28T18:49:00.572Z,2.40
2022-12-28T18:51:28.246Z,2.23
2022-12-28T18:53:55.681Z,2.10
2022-12-28T18:56:22.851Z,2.10
2022-12-28T18:58:52.600Z,2.03
2022-12-28T19:02:04.725Z,1.90
2022-12-28T19:04:11.804Z,1.73
2022-12-28T19:06:40.164Z,1.63
2022-12-28T19:09:09.602Z,1.77
2022-12-28T19:11:38.076Z,1.90
2022-12-28T19:14:07.808Z,1.77
2022-12-28T19:16:36.266Z,2.13
2022-12-28T19:19:04.961Z,1.83
2022-12-28T19:21:38.226Z,2.00
2022-12-28T19:24:10.399Z,2.00
2022-12-28T19:26:39.949Z,2.00
2022-12-28T19:29:07.764Z,1.77
2022-12-28T19:31:35.466Z,1.50
2022-12-28T19:34:03.202Z,1.60
2022-12-28T19:36:30.808Z,1.97
2022-12-28T19:38:58.155Z,1.50
2022-12-28T19:41:25.967Z,1.80
2022-12-28T19:43:53.527Z,1.70
2022-12-28T19:46:23.439Z,1.87
2022-12-28T19:48:53.824Z,1.20
2022-12-28T19:51:24.527Z,1.60
2022-12-28T19:53:56.079Z,1.70
2022-12-28T19:56:24.458Z,1.67
2022-12-28T19:58:51.640Z,2.00
2022-12-28T20:01:22.119Z,1.93
2022-12-28T20:03:49.482Z,2.13
2022-12-28T20:06:21.613Z,1.70
2022-12-28T20:08:51.191Z,1.60
2022-12-28T20:11:19.334Z,1.90
2022-12-28T20:13:52.578Z,2.00
2022-12-28T20:16:20.889Z,1.67
2022-12-28T20:18:52.688Z,1.33
2022-12-28T20:21:22.161Z,1.67
2022-12-28T20:23:54.885Z,1.67
2022-12-28T20:26:25.931Z,1.63
2022-12-28T20:28:56.810Z,1.60
2022-12-28T20:31:24.375Z,1.40
2022-12-28T20:33:52.328Z,1.57
2022-12-28T20:36:22.023Z,1.80
2022-12-28T20:38:49.846Z,1.50
2022-12-28T20:41:45.888Z,1.50
2022-12-28T20:44:28.429Z,1.63
2022-12-28T20:46:56.820Z,2.10
2022-12-28T20:49:25.643Z,1.60
2022-12-28T20:51:53.473Z,1.90
2022-12-28T20:54:23.424Z,1.70
2022-12-28T20:56:55.206Z,1.77
2022-12-28T20:59:25.320Z,1.53
2022-12-28T21:01:52.572Z,1.57
2022-12-28T21:04:20.022Z,1.50
2022-12-28T21:06:47.303Z,1.70
2022-12-28T21:09:14.822Z,1.70
2022-12-28T21:11:42.029Z,1.33
2022-12-28T21:14:09.248Z,1.83
2022-12-28T21:16:36.758Z,1.13
2022-12-28T21:19:04.271Z,1.40
2022-12-28T21:21:31.441Z,1.70
2022-12-28T21:23:58.613Z,1.27
2022-12-28T21:26:26.060Z,1.47
2022-12-28T21:28:54.411Z,1.60
2022-12-28T21:31:21.656Z,1.97
2022-12-28T21:33:50.061Z,1.40
2022-12-28T21:36:19.224Z,1.53
2022-12-28T21:38:48.338Z,1.47
2022-12-28T21:41:42.275Z,1.50
2022-12-28T21:44:13.196Z,1.17
2022-12-28T21:46:41.153Z,1.83
2022-12-28T21:49:10.144Z,1.50
2022-12-28T21:51:38.721Z,1.63
2022-12-28T21:54:11.857Z,1.23
2022-12-28T21:56:39.553Z,1.70
2022-12-28T21:59:07.343Z,1.57
2022-12-28T22:01:54.852Z,1.50
2022-12-28T22:04:41.714Z,1.40
2022-12-28T22:07:11.562Z,1.50
2022-12-28T22:09:57.935Z,1.63
2022-12-28T22:12:35.839Z,1.70
2022-12-28T22:15:24.931Z,1.87
2022-12-28T22:17:55.062Z,1.40
2022-12-28T22:20:23.203Z,1.37
2022-12-28T22:22:50.405Z,2.10
2022-12-28T22:25:17.879Z,1.30
2022-12-28T22:27:45.154Z,1.40
2022-12-28T22:30:13.348Z,1.10
2022-12-28T22:32:40.645Z,1.60
2022-12-28T22:35:08.943Z,1.20
2022-12-28T22:37:36.860Z,1.20
2022-12-28T22:40:05.587Z,1.37
2022-12-28T22:42:32.828Z,1.20
2022-12-28T22:44:59.921Z,1.40
2022-12-28T22:47:28.242Z,1.07
2022-12-28T22:49:55.457Z,1.10
2022-12-28T22:52:22.758Z,1.47
2022-12-28T22:54:51.187Z,1.20
2022-12-28T22:57:18.511Z,1.37
2022-12-28T22:59:45.742Z,1.37
2022-12-28T23:02:13.064Z,1.07
2022-12-28T23:04:40.560Z,1.13
2022-12-28T23:07:07.654Z,1.60
2022-12-28T23:09:34.973Z,1.30
2022-12-28T23:12:02.596Z,1.40
2022-12-28T23:14:48.239Z,1.27
2022-12-28T23:17:16.768Z,1.17
2022-12-28T23:20:03.992Z,1.37
2022-12-28T23:22:51.656Z,1.37
2022-12-28T23:25:40.500Z,1.13
2022-12-28T23:28:10.623Z,1.23
2022-12-28T23:30:40.085Z,1.30
2022-12-28T23:33:07.424Z,1.33
2022-12-28T23:35:34.534Z,1.70
2022-12-28T23:38:01.673Z,1.30
2022-12-28T23:40:28.873Z,1.40
2022-12-28T23:42:55.949Z,1.30
2022-12-28T23:45:23.224Z,1.37
2022-12-28T23:47:53.174Z,1.40
2022-12-28T23:50:20.704Z,1.70
2022-12-28T23:52:47.801Z,1.50
2022-12-28T23:55:15.552Z,1.47
2022-12-28T23:57:42.709Z,1.40
